sensor_id;sensor_type;location;lat;lon;timestamp;pressure;altitude;pressure_sealevel;temperature;humidity
46756;BME280;32506;52.826;-1.192;2023-01-27T00:02:18;102627.56;;;5.01;65.41
46756;BME280;32506;52.826;-1.192;2023-01-27T00:04:43;102620.56;;;5.00;65.09
46756;BME280;32506;52.826;-1.192;2023-01-27T00:07:09;102615.25;;;5.00;65.52
46756;BME280;32506;52.826;-1.192;2023-01-27T00:09:34;102620.56;;;5.00;65.65
46756;BME280;32506;52.826;-1.192;2023-01-27T00:12:00;102616.22;;;4.99;65.34
46756;BME280;32506;52.826;-1.192;2023-01-27T00:14:44;102618.16;;;4.97;65.25
46756;BME280;32506;52.826;-1.192;2023-01-27T00:17:09;102623.44;;;4.97;65.49
46756;BME280;32506;52.826;-1.192;2023-01-27T00:19:34;102621.78;;;4.96;65.46
46756;BME280;32506;52.826;-1.192;2023-01-27T00:22:00;102618.28;;;4.95;65.25
46756;BME280;32506;52.826;-1.192;2023-01-27T00:24:44;102618.28;;;4.95;65.75
46756;BME280;32506;52.826;-1.192;2023-01-27T00:27:10;102614.78;;;4.95;65.49
46756;BME280;32506;52.826;-1.192;2023-01-27T00:29:36;102612.28;;;4.93;65.64
46756;BME280;32506;52.826;-1.192;2023-01-27T00:32:02;102623.72;;;4.94;65.38
46756;BME280;32506;52.826;-1.192;2023-01-27T00:34:46;102622.88;;;4.93;65.46
46756;BME280;32506;52.826;-1.192;2023-01-27T00:37:12;102615.88;;;4.92;65.85
46756;BME280;32506;52.826;-1.192;2023-01-27T00:39:38;102614.94;;;4.93;65.69
46756;BME280;32506;52.826;-1.192;2023-01-27T00:42:03;102615.88;;;4.92;65.75
46756;BME280;32506;52.826;-1.192;2023-01-27T00:44:29;102623.00;;;4.92;65.55
46756;BME280;32506;52.826;-1.192;2023-01-27T00:46:55;102617.72;;;4.92;65.82
46756;BME280;32506;52.826;-1.192;2023-01-27T00:49:20;102614.19;;;4.91;65.49
46756;BME280;32506;52.826;-1.192;2023-01-27T00:51:45;102627.44;;;4.91;65.83
46756;BME280;32506;52.826;-1.192;2023-01-27T00:54:11;102620.34;;;4.92;65.23
46756;BME280;32506;52.826;-1.192;2023-01-27T00:56:36;102608.91;;;4.91;65.50
46756;BME280;32506;52.826;-1.192;2023-01-27T00:59:03;102613.38;;;4.91;65.65
46756;BME280;32506;52.826;-1.192;2023-01-27T01:01:29;102601.06;;;4.90;66.24
46756;BME280;32506;52.826;-1.192;2023-01-27T01:03:54;102603.72;;;4.90;65.48
46756;BME280;32506;52.826;-1.192;2023-01-27T01:06:20;102593.97;;;4.90;65.77
46756;BME280;32506;52.826;-1.192;2023-01-27T01:08:46;102593.13;;;4.90;65.76
46756;BME280;32506;52.826;-1.192;2023-01-27T01:11:14;102594.94;;;4.89;65.57
46756;BME280;32506;52.826;-1.192;2023-01-27T01:13:41;102596.75;;;4.88;65.59
46756;BME280;32506;52.826;-1.192;2023-01-27T01:16:18;102593.25;;;4.88;65.94
46756;BME280;32506;52.826;-1.192;2023-01-27T01:18:44;102605.56;;;4.89;65.90
46756;BME280;32506;52.826;-1.192;2023-01-27T01:21:10;102595.91;;;4.88;65.96
46756;BME280;32506;52.826;-1.192;2023-01-27T01:23:43;102597.81;;;4.86;65.60
46756;BME280;32506;52.826;-1.192;2023-01-27T01:26:11;102598.81;;;4.85;65.41
46756;BME280;32506;52.826;-1.192;2023-01-27T01:28:37;102597.97;;;4.84;65.89
46756;BME280;32506;52.826;-1.192;2023-01-27T01:31:08;102599.78;;;4.84;65.90
46756;BME280;32506;52.826;-1.192;2023-01-27T01:33:35;102600.72;;;4.83;65.58
46756;BME280;32506;52.826;-1.192;2023-01-27T01:36:14;102605.34;;;4.81;66.03
46756;BME280;32506;52.826;-1.192;2023-01-27T01:38:41;102599.03;;;4.82;65.81
46756;BME280;32506;52.826;-1.192;2023-01-27T01:41:10;102604.34;;;4.82;65.78
46756;BME280;32506;52.826;-1.192;2023-01-27T01:43:36;102606.16;;;4.81;65.62
46756;BME280;32506;52.826;-1.192;2023-01-27T01:46:02;102607.13;;;4.80;66.09
46756;BME280;32506;52.826;-1.192;2023-01-27T01:48:35;102602.69;;;4.81;66.03
46756;BME280;32506;52.826;-1.192;2023-01-27T01:51:36;102597.38;;;4.81;65.62
46756;BME280;32506;52.826;-1.192;2023-01-27T01:54:26;102610.72;;;4.79;65.65
46756;BME280;32506;52.826;-1.192;2023-01-27T01:59:39;102601.13;;;4.78;65.86
46756;BME280;32506;52.826;-1.192;2023-01-27T02:02:10;102602.78;;;4.79;66.15
46756;BME280;32506;52.826;-1.192;2023-01-27T02:04:56;102594.84;;;4.79;65.55
46756;BME280;32506;52.826;-1.192;2023-01-27T02:07:31;102598.47;;;4.78;66.05
46756;BME280;32506;52.826;-1.192;2023-01-27T02:09:59;102597.63;;;4.78;66.29
46756;BME280;32506;52.826;-1.192;2023-01-27T02:12:25;102603.78;;;4.78;66.20
46756;BME280;32506;52.826;-1.192;2023-01-27T02:14:50;102601.13;;;4.78;66.26
46756;BME280;32506;52.826;-1.192;2023-01-27T02:17:16;102596.66;;;4.79;66.05
46756;BME280;32506;52.826;-1.192;2023-01-27T02:22:58;102597.47;;;4.79;65.92
46756;BME280;32506;52.826;-1.192;2023-01-27T02:25:48;102589.53;;;4.79;66.25
46756;BME280;32506;52.826;-1.192;2023-01-27T02:28:15;102586.88;;;4.79;65.91
46756;BME280;32506;52.826;-1.192;2023-01-27T02:30:40;102581.59;;;4.79;66.30
46756;BME280;32506;52.826;-1.192;2023-01-27T02:33:11;102581.59;;;4.79;66.13
46756;BME280;32506;52.826;-1.192;2023-01-27T02:35:41;102580.75;;;4.79;66.11
46756;BME280;32506;52.826;-1.192;2023-01-27T02:38:10;102582.59;;;4.78;65.99
46756;BME280;32506;52.826;-1.192;2023-01-27T02:40:37;102589.53;;;4.79;66.29
46756;BME280;32506;52.826;-1.192;2023-01-27T02:43:04;102585.22;;;4.78;66.23
46756;BME280;32506;52.826;-1.192;2023-01-27T02:45:29;102585.22;;;4.78;66.25
46756;BME280;32506;52.826;-1.192;2023-01-27T02:47:55;102587.75;;;4.80;66.10
46756;BME280;32506;52.826;-1.192;2023-01-27T02:50:20;102581.59;;;4.79;66.09
46756;BME280;32506;52.826;-1.192;2023-01-27T02:52:46;102587.88;;;4.78;66.30
46756;BME280;32506;52.826;-1.192;2023-01-27T02:55:11;102579.94;;;4.78;66.41
46756;BME280;32506;52.826;-1.192;2023-01-27T02:57:37;102567.50;;;4.79;66.51
46756;BME280;32506;52.826;-1.192;2023-01-27T03:00:02;102572.81;;;4.79;66.52
46756;BME280;32506;52.826;-1.192;2023-01-27T03:02:28;102571.84;;;4.80;66.36
46756;BME280;32506;52.826;-1.192;2023-01-27T03:04:55;102562.22;;;4.79;66.11
46756;BME280;32506;52.826;-1.192;2023-01-27T03:07:21;102564.88;;;4.79;66.37
46756;BME280;32506;52.826;-1.192;2023-01-27T03:09:46;102565.81;;;4.78;66.63
46756;BME280;32506;52.826;-1.192;2023-01-27T03:12:12;102567.50;;;4.79;66.21
46756;BME280;32506;52.826;-1.192;2023-01-27T03:14:47;102564.88;;;4.79;66.29
46756;BME280;32506;52.826;-1.192;2023-01-27T03:17:32;102553.44;;;4.78;66.56
46756;BME280;32506;52.826;-1.192;2023-01-27T03:20:16;102553.44;;;4.78;66.69
46756;BME280;32506;52.826;-1.192;2023-01-27T03:22:41;102556.91;;;4.79;66.25
46756;BME280;32506;52.826;-1.192;2023-01-27T03:25:07;102553.44;;;4.78;66.74
46756;BME280;32506;52.826;-1.192;2023-01-27T03:27:34;102556.09;;;4.78;66.49
46756;BME280;32506;52.826;-1.192;2023-01-27T03:29:59;102552.44;;;4.79;66.49
46756;BME280;32506;52.826;-1.192;2023-01-27T03:32:27;102549.94;;;4.78;66.45
46756;BME280;32506;52.826;-1.192;2023-01-27T03:34:53;102555.22;;;4.78;66.36
46756;BME280;32506;52.826;-1.192;2023-01-27T03:37:22;102549.94;;;4.78;66.17
46756;BME280;32506;52.826;-1.192;2023-01-27T03:40:07;102555.22;;;4.78;66.74
46756;BME280;32506;52.826;-1.192;2023-01-27T03:42:52;102551.75;;;4.77;66.47
46756;BME280;32506;52.826;-1.192;2023-01-27T03:45:36;102544.75;;;4.76;66.61
46756;BME280;32506;52.826;-1.192;2023-01-27T03:48:20;102553.56;;;4.77;66.57
46756;BME280;32506;52.826;-1.192;2023-01-27T03:50:46;102552.72;;;4.76;66.32
46756;BME280;32506;52.826;-1.192;2023-01-27T03:53:20;102547.41;;;4.76;66.65
46756;BME280;32506;52.826;-1.192;2023-01-27T03:55:46;102562.34;;;4.77;66.76
46756;BME280;32506;52.826;-1.192;2023-01-27T03:58:17;102564.16;;;4.77;66.61
46756;BME280;32506;52.826;-1.192;2023-01-27T04:00:55;102564.03;;;4.78;66.36
46756;BME280;32506;52.826;-1.192;2023-01-27T04:03:22;102567.50;;;4.79;66.41
46756;BME280;32506;52.826;-1.192;2023-01-27T04:06:10;102565.00;;;4.77;66.46
46756;BME280;32506;52.826;-1.192;2023-01-27T04:08:55;102566.81;;;4.77;66.48
46756;BME280;32506;52.826;-1.192;2023-01-27T04:11:21;102571.13;;;4.78;66.65
46756;BME280;32506;52.826;-1.192;2023-01-27T04:14:06;102557.88;;;4.78;66.70
46756;BME280;32506;52.826;-1.192;2023-01-27T04:16:32;102565.81;;;4.78;66.82
46756;BME280;32506;52.826;-1.192;2023-01-27T04:18:58;102565.00;;;4.77;66.75
46756;BME280;32506;52.826;-1.192;2023-01-27T04:21:24;102565.00;;;4.77;66.75
46756;BME280;32506;52.826;-1.192;2023-01-27T04:23:51;102561.38;;;4.78;66.45
46756;BME280;32506;52.826;-1.192;2023-01-27T04:26:18;102554.28;;;4.79;66.90
46756;BME280;32506;52.826;-1.192;2023-01-27T04:28:44;102565.69;;;4.79;66.73
46756;BME280;32506;52.826;-1.192;2023-01-27T04:31:09;102550.78;;;4.78;66.36
46756;BME280;32506;52.826;-1.192;2023-01-27T04:33:35;102545.50;;;4.78;66.43
46756;BME280;32506;52.826;-1.192;2023-01-27T04:36:00;102552.44;;;4.79;66.78
46756;BME280;32506;52.826;-1.192;2023-01-27T04:38:26;102548.97;;;4.79;66.66
46756;BME280;32506;52.826;-1.192;2023-01-27T04:40:51;102553.44;;;4.78;66.80
46756;BME280;32506;52.826;-1.192;2023-01-27T04:43:17;102552.56;;;4.78;66.63
46756;BME280;32506;52.826;-1.192;2023-01-27T04:45:42;102549.94;;;4.78;66.43
46756;BME280;32506;52.826;-1.192;2023-01-27T04:48:08;102563.19;;;4.78;66.85
46756;BME280;32506;52.826;-1.192;2023-01-27T04:50:33;102561.50;;;4.77;66.58
46756;BME280;32506;52.826;-1.192;2023-01-27T04:52:59;102564.25;;;4.75;66.73
46756;BME280;32506;52.826;-1.192;2023-01-27T04:55:24;102559.81;;;4.76;66.55
46756;BME280;32506;52.826;-1.192;2023-01-27T04:57:50;102552.72;;;4.76;66.72
46756;BME280;32506;52.826;-1.192;2023-01-27T05:00:16;102553.56;;;4.77;66.75
46756;BME280;32506;52.826;-1.192;2023-01-27T05:02:41;102558.97;;;4.75;66.91
46756;BME280;32506;52.826;-1.192;2023-01-27T05:05:07;102565.97;;;4.76;66.46
46756;BME280;32506;52.826;-1.192;2023-01-27T05:07:33;102562.47;;;4.76;66.37
46756;BME280;32506;52.826;-1.192;2023-01-27T05:09:58;102563.44;;;4.75;66.84
46756;BME280;32506;52.826;-1.192;2023-01-27T05:12:24;102565.13;;;4.76;66.72
46756;BME280;32506;52.826;-1.192;2023-01-27T05:14:49;102563.31;;;4.76;66.54
46756;BME280;32506;52.826;-1.192;2023-01-27T05:17:15;102560.66;;;4.76;66.95
46756;BME280;32506;52.826;-1.192;2023-01-27T05:19:40;102569.47;;;4.77;66.88
46756;BME280;32506;52.826;-1.192;2023-01-27T05:22:06;102559.81;;;4.76;66.59
46756;BME280;32506;52.826;-1.192;2023-01-27T05:24:31;102563.31;;;4.76;66.82
46756;BME280;32506;52.826;-1.192;2023-01-27T05:26:57;102569.47;;;4.77;66.57
46756;BME280;32506;52.826;-1.192;2023-01-27T05:29:22;102565.97;;;4.76;66.88
46756;BME280;32506;52.826;-1.192;2023-01-27T05:31:48;102577.41;;;4.77;66.58
46756;BME280;32506;52.826;-1.192;2023-01-27T05:34:13;102574.75;;;4.77;66.81
46756;BME280;32506;52.826;-1.192;2023-01-27T05:36:41;102570.28;;;4.77;66.92
46756;BME280;32506;52.826;-1.192;2023-01-27T05:39:09;102572.94;;;4.77;66.80
46756;BME280;32506;52.826;-1.192;2023-01-27T05:41:35;102572.13;;;4.77;66.80
46756;BME280;32506;52.826;-1.192;2023-01-27T05:44:01;102565.00;;;4.77;66.66
46756;BME280;32506;52.826;-1.192;2023-01-27T05:46:29;102570.28;;;4.77;66.80
46756;BME280;32506;52.826;-1.192;2023-01-27T05:48:57;102570.28;;;4.77;66.65
46756;BME280;32506;52.826;-1.192;2023-01-27T05:51:25;102565.00;;;4.77;67.09
46756;BME280;32506;52.826;-1.192;2023-01-27T05:53:52;102574.63;;;4.78;66.41
46756;BME280;32506;52.826;-1.192;2023-01-27T05:56:21;102569.34;;;4.78;66.48
46756;BME280;32506;52.826;-1.192;2023-01-27T05:58:47;102567.50;;;4.79;66.97
46756;BME280;32506;52.826;-1.192;2023-01-27T06:01:17;102563.19;;;4.78;66.59
46756;BME280;32506;52.826;-1.192;2023-01-27T06:03:44;102564.88;;;4.79;66.57
46756;BME280;32506;52.826;-1.192;2023-01-27T06:06:12;102572.81;;;4.79;66.92
46756;BME280;32506;52.826;-1.192;2023-01-27T06:08:38;102564.88;;;4.79;66.80
46756;BME280;32506;52.826;-1.192;2023-01-27T06:11:05;102560.53;;;4.78;67.00
46756;BME280;32506;52.826;-1.192;2023-01-27T06:13:30;102565.00;;;4.77;66.83
46756;BME280;32506;52.826;-1.192;2023-01-27T06:15:56;102570.28;;;4.77;66.71
46756;BME280;32506;52.826;-1.192;2023-01-27T06:18:22;102563.31;;;4.76;66.77
46756;BME280;32506;52.826;-1.192;2023-01-27T06:20:48;102570.41;;;4.76;66.78
46756;BME280;32506;52.826;-1.192;2023-01-27T06:23:15;102572.22;;;4.75;67.08
46756;BME280;32506;52.826;-1.192;2023-01-27T06:25:43;102575.84;;;4.74;66.53
46756;BME280;32506;52.826;-1.192;2023-01-27T06:28:09;102573.19;;;4.74;66.58
46756;BME280;32506;52.826;-1.192;2023-01-27T06:30:36;102569.81;;;4.72;66.40
46756;BME280;32506;52.826;-1.192;2023-01-27T06:33:03;102566.34;;;4.72;66.60
46756;BME280;32506;52.826;-1.192;2023-01-27T06:35:29;102565.47;;;4.71;66.73
46756;BME280;32506;52.826;-1.192;2023-01-27T06:37:57;102577.91;;;4.70;66.77
46756;BME280;32506;52.826;-1.192;2023-01-27T06:40:23;102573.56;;;4.69;66.30
46756;BME280;32506;52.826;-1.192;2023-01-27T06:42:49;102575.38;;;4.69;66.46
46756;BME280;32506;52.826;-1.192;2023-01-27T06:45:14;102582.47;;;4.68;66.73
46756;BME280;32506;52.826;-1.192;2023-01-27T06:47:40;102583.47;;;4.67;66.68
46756;BME280;32506;52.826;-1.192;2023-01-27T06:50:07;102588.75;;;4.67;66.84
46756;BME280;32506;52.826;-1.192;2023-01-27T06:52:33;102579.13;;;4.66;66.64
46756;BME280;32506;52.826;-1.192;2023-01-27T06:54:58;102583.56;;;4.66;66.54
46756;BME280;32506;52.826;-1.192;2023-01-27T06:57:24;102587.19;;;4.65;66.79
46756;BME280;32506;52.826;-1.192;2023-01-27T06:59:49;102582.72;;;4.65;66.15
46756;BME280;32506;52.826;-1.192;2023-01-27T07:02:15;102587.19;;;4.65;66.62
46756;BME280;32506;52.826;-1.192;2023-01-27T07:04:41;102587.19;;;4.65;66.67
46756;BME280;32506;52.826;-1.192;2023-01-27T07:07:06;102582.84;;;4.64;66.65
46756;BME280;32506;52.826;-1.192;2023-01-27T07:09:31;102591.75;;;4.63;66.42
46756;BME280;32506;52.826;-1.192;2023-01-27T07:11:57;102585.63;;;4.62;66.53
46756;BME280;32506;52.826;-1.192;2023-01-27T07:14:22;102582.97;;;4.62;66.58
46756;BME280;32506;52.826;-1.192;2023-01-27T07:16:48;102589.13;;;4.63;66.50
46756;BME280;32506;52.826;-1.192;2023-01-27T07:19:13;102591.75;;;4.63;66.32
46756;BME280;32506;52.826;-1.192;2023-01-27T07:21:39;102591.88;;;4.61;66.72
46756;BME280;32506;52.826;-1.192;2023-01-27T07:24:05;102599.84;;;4.61;66.63
46756;BME280;32506;52.826;-1.192;2023-01-27T07:26:30;102598.00;;;4.62;66.74
46756;BME280;32506;52.826;-1.192;2023-01-27T07:28:56;102598.16;;;4.60;66.79
46756;BME280;32506;52.826;-1.192;2023-01-27T07:31:22;102593.72;;;4.61;66.37
46756;BME280;32506;52.826;-1.192;2023-01-27T07:33:47;102595.63;;;4.59;66.46
46756;BME280;32506;52.826;-1.192;2023-01-27T07:36:13;102599.09;;;4.59;66.86
46756;BME280;32506;52.826;-1.192;2023-01-27T07:38:39;102592.00;;;4.60;66.79
46756;BME280;32506;52.826;-1.192;2023-01-27T07:41:05;102596.44;;;4.59;66.39
46756;BME280;32506;52.826;-1.192;2023-01-27T07:43:32;102593.94;;;4.58;66.47
46756;BME280;32506;52.826;-1.192;2023-01-27T07:45:58;102600.09;;;4.58;66.49
46756;BME280;32506;52.826;-1.192;2023-01-27T07:48:23;102598.41;;;4.57;66.69
46756;BME280;32506;52.826;-1.192;2023-01-27T07:50:48;102589.63;;;4.57;66.32
46756;BME280;32506;52.826;-1.192;2023-01-27T07:53:14;102591.41;;;4.56;66.67
46756;BME280;32506;52.826;-1.192;2023-01-27T07:55:39;102602.88;;;4.57;66.53
46756;BME280;32506;52.826;-1.192;2023-01-27T07:58:05;102604.78;;;4.54;66.44
46756;BME280;32506;52.826;-1.192;2023-01-27T08:00:31;102602.13;;;4.54;66.43
46756;BME280;32506;52.826;-1.192;2023-01-27T08:02:58;102607.44;;;4.54;66.65
46756;BME280;32506;52.826;-1.192;2023-01-27T08:05:24;102608.38;;;4.53;66.47
46756;BME280;32506;52.826;-1.192;2023-01-27T08:07:50;102605.75;;;4.53;66.29
46756;BME280;32506;52.826;-1.192;2023-01-27T08:10:17;102611.91;;;4.54;66.62
46756;BME280;32506;52.826;-1.192;2023-01-27T08:12:43;102607.56;;;4.53;66.78
46756;BME280;32506;52.826;-1.192;2023-01-27T08:15:09;102606.69;;;4.52;66.75
46756;BME280;32506;52.826;-1.192;2023-01-27T08:17:35;102611.03;;;4.53;66.42
46756;BME280;32506;52.826;-1.192;2023-01-27T08:20:01;102619.94;;;4.52;66.76
46756;BME280;32506;52.826;-1.192;2023-01-27T08:22:29;102615.50;;;4.53;66.39
46756;BME280;32506;52.826;-1.192;2023-01-27T08:24:55;102623.44;;;4.53;66.65
46756;BME280;32506;52.826;-1.192;2023-01-27T08:27:20;102634.03;;;4.53;66.40
46756;BME280;32506;52.826;-1.192;2023-01-27T08:29:46;102629.56;;;4.53;66.93
46756;BME280;32506;52.826;-1.192;2023-01-27T08:32:11;102634.03;;;4.53;66.70
46756;BME280;32506;52.826;-1.192;2023-01-27T08:34:38;102636.56;;;4.54;66.83
46756;BME280;32506;52.826;-1.192;2023-01-27T08:37:04;102640.91;;;4.56;66.52
46756;BME280;32506;52.826;-1.192;2023-01-27T08:39:30;102639.22;;;4.54;66.54
46756;BME280;32506;52.826;-1.192;2023-01-27T08:41:56;102638.38;;;4.54;66.23
46756;BME280;32506;52.826;-1.192;2023-01-27T08:44:22;102648.84;;;4.56;66.30
46756;BME280;32506;52.826;-1.192;2023-01-27T08:46:48;102648.84;;;4.56;66.65
46756;BME280;32506;52.826;-1.192;2023-01-27T08:49:14;102655.72;;;4.58;66.65
46756;BME280;32506;52.826;-1.192;2023-01-27T08:51:40;102647.75;;;4.58;66.72
46756;BME280;32506;52.826;-1.192;2023-01-27T08:54:06;102651.25;;;4.59;66.36
46756;BME280;32506;52.826;-1.192;2023-01-27T08:56:32;102655.59;;;4.60;66.64
46756;BME280;32506;52.826;-1.192;2023-01-27T08:58:58;102655.44;;;4.61;66.58
46756;BME280;32506;52.826;-1.192;2023-01-27T09:01:24;102652.69;;;4.63;66.74
46756;BME280;32506;52.826;-1.192;2023-01-27T09:03:49;102643.91;;;4.62;66.51
46756;BME280;32506;52.826;-1.192;2023-01-27T09:06:16;102655.19;;;4.64;66.52
46756;BME280;32506;52.826;-1.192;2023-01-27T09:08:42;102655.06;;;4.66;66.17
46756;BME280;32506;52.826;-1.192;2023-01-27T09:11:16;102644.47;;;4.66;66.39
46756;BME280;32506;52.826;-1.192;2023-01-27T09:13:42;102661.94;;;4.68;66.33
46756;BME280;32506;52.826;-1.192;2023-01-27T09:16:08;102667.22;;;4.68;66.79
46756;BME280;32506;52.826;-1.192;2023-01-27T09:18:34;102669.78;;;4.70;66.56
46756;BME280;32506;52.826;-1.192;2023-01-27T09:21:04;102671.44;;;4.71;66.28
46756;BME280;32506;52.826;-1.192;2023-01-27T09:23:30;102660.72;;;4.73;66.43
46756;BME280;32506;52.826;-1.192;2023-01-27T09:25:56;102668.44;;;4.76;66.28
46756;BME280;32506;52.826;-1.192;2023-01-27T09:28:21;102670.97;;;4.77;66.85
46756;BME280;32506;52.826;-1.192;2023-01-27T09:30:47;102674.44;;;4.78;66.84
46756;BME280;32506;52.826;-1.192;2023-01-27T09:33:13;102669.88;;;4.80;66.34
46756;BME280;32506;52.826;-1.192;2023-01-27T09:35:43;102674.09;;;4.82;66.55
46756;BME280;32506;52.826;-1.192;2023-01-27T09:38:11;102670.47;;;4.83;66.73
46756;BME280;32506;52.826;-1.192;2023-01-27T09:43:33;102675.28;;;4.90;66.89
46756;BME280;32506;52.826;-1.192;2023-01-27T09:48:44;102678.66;;;4.92;66.81
46756;BME280;32506;52.826;-1.192;2023-01-27T09:51:42;102677.56;;;4.94;66.88
46756;BME280;32506;52.826;-1.192;2023-01-27T10:03:07;102683.66;;;5.06;66.90
46756;BME280;32506;52.826;-1.192;2023-01-27T10:11:31;102676.91;;;5.13;67.22
46756;BME280;32506;52.826;-1.192;2023-01-27T10:14:13;102685.44;;;5.17;67.29
46756;BME280;32506;52.826;-1.192;2023-01-27T10:27:16;102695.41;;;5.36;67.37
46756;BME280;32506;52.826;-1.192;2023-01-27T10:29:51;102695.00;;;5.41;67.66
46756;BME280;32506;52.826;-1.192;2023-01-27T10:32:53;102692.94;;;5.44;68.04
46756;BME280;32506;52.826;-1.192;2023-01-27T10:35:16;102687.25;;;5.49;68.20
46756;BME280;32506;52.826;-1.192;2023-01-27T10:46:19;102671.94;;;5.74;68.39
46756;BME280;32506;52.826;-1.192;2023-01-27T10:51:25;102677.50;;;5.92;69.30
46756;BME280;32506;52.826;-1.192;2023-01-27T11:01:46;102660.78;;;6.22;68.77
46756;BME280;32506;52.826;-1.192;2023-01-27T11:04:32;102667.22;;;6.29;68.85
46756;BME280;32506;52.826;-1.192;2023-01-27T11:06:59;102662.38;;;6.34;69.10
46756;BME280;32506;52.826;-1.192;2023-01-27T11:09:30;102663.78;;;6.38;69.15
46756;BME280;32506;52.826;-1.192;2023-01-27T11:12:28;102665.78;;;6.46;69.02
46756;BME280;32506;52.826;-1.192;2023-01-27T11:14:54;102660.03;;;6.51;69.21
46756;BME280;32506;52.826;-1.192;2023-01-27T11:17:33;102664.09;;;6.55;69.71
46756;BME280;32506;52.826;-1.192;2023-01-27T11:23:00;102660.50;;;6.66;69.67
46756;BME280;32506;52.826;-1.192;2023-01-27T11:30:39;102664.63;;;6.80;69.02
46756;BME280;32506;52.826;-1.192;2023-01-27T11:35:46;102654.13;;;6.88;68.63
46756;BME280;32506;52.826;-1.192;2023-01-27T11:38:16;102652.88;;;6.92;69.54
46756;BME280;32506;52.826;-1.192;2023-01-27T11:40:43;102652.59;;;6.95;68.90
46756;BME280;32506;52.826;-1.192;2023-01-27T11:43:15;102648.69;;;6.99;69.10
46756;BME280;32506;52.826;-1.192;2023-01-27T11:45:42;102652.75;;;7.03;69.07
46756;BME280;32506;52.826;-1.192;2023-01-27T11:48:12;102651.47;;;7.08;69.02
46756;BME280;32506;52.826;-1.192;2023-01-27T11:50:40;102641.41;;;7.11;69.16
46756;BME280;32506;52.826;-1.192;2023-01-27T11:55:44;102641.56;;;7.19;69.10
46756;BME280;32506;52.826;-1.192;2023-01-27T11:58:25;102647.28;;;7.25;69.52
46756;BME280;32506;52.826;-1.192;2023-01-27T12:00:58;102639.88;;;7.28;69.28
46756;BME280;32506;52.826;-1.192;2023-01-27T12:06:15;102641.13;;;7.34;69.17
46756;BME280;32506;52.826;-1.192;2023-01-27T12:08:44;102636.38;;;7.37;69.28
46756;BME280;32506;52.826;-1.192;2023-01-27T12:11:20;102628.94;;;7.41;69.32
46756;BME280;32506;52.826;-1.192;2023-01-27T12:14:00;102628.69;;;7.44;69.52
46756;BME280;32506;52.826;-1.192;2023-01-27T12:19:04;102619.97;;;7.52;69.27
46756;BME280;32506;52.826;-1.192;2023-01-27T12:21:46;102619.69;;;7.55;69.30
46756;BME280;32506;52.826;-1.192;2023-01-27T12:24:23;102614.91;;;7.59;69.38
46756;BME280;32506;52.826;-1.192;2023-01-27T12:26:51;102613.78;;;7.61;69.11
46756;BME280;32506;52.826;-1.192;2023-01-27T12:29:20;102614.34;;;7.65;68.87
46756;BME280;32506;52.826;-1.192;2023-01-27T12:31:49;102620.22;;;7.68;68.91
46756;BME280;32506;52.826;-1.192;2023-01-27T12:34:27;102623.44;;;7.72;68.68
46756;BME280;32506;52.826;-1.192;2023-01-27T12:36:54;102615.31;;;7.73;68.80
46756;BME280;32506;52.826;-1.192;2023-01-27T12:39:34;102607.03;;;7.77;68.94
46756;BME280;32506;52.826;-1.192;2023-01-27T12:42:03;102609.56;;;7.78;68.62
46756;BME280;32506;52.826;-1.192;2023-01-27T12:44:42;102610.13;;;7.82;69.19
46756;BME280;32506;52.826;-1.192;2023-01-27T12:47:27;102601.00;;;7.84;68.73
46756;BME280;32506;52.826;-1.192;2023-01-27T12:50:21;102600.69;;;7.87;68.74
46756;BME280;32506;52.826;-1.192;2023-01-27T12:53:14;102598.72;;;7.89;68.85
46756;BME280;32506;52.826;-1.192;2023-01-27T13:01:22;102593.78;;;7.95;68.70
46756;BME280;32506;52.826;-1.192;2023-01-27T13:03:51;102592.00;;;7.95;68.52
46756;BME280;32506;52.826;-1.192;2023-01-27T13:06:20;102594.50;;;7.97;68.83
46756;BME280;32506;52.826;-1.192;2023-01-27T13:08:49;102590.00;;;7.97;68.37
46756;BME280;32506;52.826;-1.192;2023-01-27T13:11:29;102589.84;;;7.99;68.48
46756;BME280;32506;52.826;-1.192;2023-01-27T13:13:56;102588.03;;;7.99;69.02
46756;BME280;32506;52.826;-1.192;2023-01-27T13:16:26;102580.06;;;7.99;68.47
46756;BME280;32506;52.826;-1.192;2023-01-27T13:18:57;102591.38;;;8.01;68.63
46756;BME280;32506;52.826;-1.192;2023-01-27T13:21:35;102581.44;;;8.03;68.62
46756;BME280;32506;52.826;-1.192;2023-01-27T13:24:12;102586.78;;;8.03;68.51
46756;BME280;32506;52.826;-1.192;2023-01-27T13:26:39;102576.13;;;8.03;68.23
46756;BME280;32506;52.826;-1.192;2023-01-27T13:32:15;102576.13;;;8.03;68.04
46756;BME280;32506;52.826;-1.192;2023-01-27T13:34:51;102581.59;;;8.02;67.96
46756;BME280;32506;52.826;-1.192;2023-01-27T13:42:39;102582.56;;;8.01;67.93
46756;BME280;32506;52.826;-1.192;2023-01-27T13:45:17;102584.41;;;8.00;67.43
46756;BME280;32506;52.826;-1.192;2023-01-27T13:51:14;102588.03;;;7.99;67.27
46756;BME280;32506;52.826;-1.192;2023-01-27T13:53:41;102582.88;;;7.98;67.26
46756;BME280;32506;52.826;-1.192;2023-01-27T13:56:14;102577.56;;;7.98;67.16
46756;BME280;32506;52.826;-1.192;2023-01-27T13:58:52;102576.84;;;7.96;67.19
46756;BME280;32506;52.826;-1.192;2023-01-27T14:07:44;102574.47;;;7.93;67.12
46756;BME280;32506;52.826;-1.192;2023-01-27T14:10:23;102580.78;;;7.92;66.98
46756;BME280;32506;52.826;-1.192;2023-01-27T14:15:39;102575.75;;;7.88;67.16
46756;BME280;32506;52.826;-1.192;2023-01-27T14:18:18;102578.44;;;7.88;66.66
46756;BME280;32506;52.826;-1.192;2023-01-27T14:26:13;102568.19;;;7.84;67.15
46756;BME280;32506;52.826;-1.192;2023-01-27T14:29:02;102567.38;;;7.83;66.84
46756;BME280;32506;52.826;-1.192;2023-01-27T14:31:42;102571.00;;;7.82;66.90
46756;BME280;32506;52.826;-1.192;2023-01-27T14:34:35;102565.00;;;7.80;66.63
46756;BME280;32506;52.826;-1.192;2023-01-27T14:37:19;102565.84;;;7.81;66.95
46756;BME280;32506;52.826;-1.192;2023-01-27T14:45:27;102560.94;;;7.76;66.60
46756;BME280;32506;52.826;-1.192;2023-01-27T14:48:37;102554.78;;;7.76;67.00
46756;BME280;32506;52.826;-1.192;2023-01-27T14:54:18;102552.28;;;7.74;66.69
46756;BME280;32506;52.826;-1.192;2023-01-27T14:59:58;102550.59;;;7.73;66.95
46756;BME280;32506;52.826;-1.192;2023-01-27T15:02:41;102549.75;;;7.72;67.01